createdAt,value
2017-10-26T00:02:45.150Z,13.70
2017-10-26T00:07:49.284Z,13.80
2017-10-26T00:12:51.915Z,13.80
2017-10-26T00:17:54.799Z,13.90
2017-10-26T00:22:57.402Z,13.90
2017-10-26T00:28:00.727Z,13.80
2017-10-26T00:33:03.492Z,13.70
2017-10-26T00:38:07.109Z,13.50
2017-10-26T00:43:10.498Z,13.40
2017-10-26T00:48:13.271Z,13.40
2017-10-26T00:53:16.072Z,13.30
2017-10-26T00:58:19.155Z,13.30
2017-10-26T01:03:22.549Z,13.20
2017-10-26T01:08:25.276Z,13.20
2017-10-26T01:13:27.909Z,13.10
2017-10-26T01:18:30.837Z,13.00
2017-10-26T01:23:33.644Z,13.00
2017-10-26T01:28:36.531Z,12.80
2017-10-26T01:33:39.254Z,12.80
2017-10-26T01:38:41.973Z,12.70
2017-10-26T01:43:45.406Z,12.50
2017-10-26T01:48:49.475Z,12.40
2017-10-26T01:53:52.165Z,12.40
2017-10-26T01:58:55.667Z,12.40
2017-10-26T02:03:58.372Z,12.30
2017-10-26T02:09:01.248Z,12.20
2017-10-26T02:14:04.611Z,12.20
2017-10-26T02:19:07.998Z,12.20
2017-10-26T02:24:10.584Z,12.10
2017-10-26T02:29:26.075Z,12.20
2017-10-26T02:34:28.742Z,12.20
2017-10-26T02:39:31.940Z,12.20
2017-10-26T02:44:34.707Z,12.30
2017-10-26T02:49:37.501Z,12.30
2017-10-26T02:54:41.033Z,12.40
2017-10-26T02:59:43.744Z,12.30
2017-10-26T03:04:46.391Z,12.40
2017-10-26T03:09:49.380Z,12.40
2017-10-26T03:14:52.092Z,12.40
2017-10-26T03:19:55.662Z,12.30
2017-10-26T03:24:58.333Z,12.30
2017-10-26T03:30:01.799Z,12.20
2017-10-26T03:35:04.499Z,12.20
2017-10-26T03:40:07.363Z,12.20
2017-10-26T03:45:10.878Z,12.10
2017-10-26T03:50:14.015Z,12.10
2017-10-26T03:55:16.711Z,12.10
2017-10-26T04:00:19.787Z,12.10
2017-10-26T04:05:23.911Z,12.10
2017-10-26T04:10:27.323Z,12.10
2017-10-26T04:15:30.117Z,12.00
2017-10-26T04:20:33.028Z,12.00
2017-10-26T04:25:35.675Z,11.90
2017-10-26T04:30:38.373Z,11.90
2017-10-26T04:35:41.783Z,11.90
2017-10-26T04:40:46.025Z,11.90
2017-10-26T04:45:49.405Z,11.80
2017-10-26T04:50:52.967Z,11.80
2017-10-26T04:55:56.349Z,11.80
2017-10-26T05:00:59.620Z,11.80
2017-10-26T05:06:02.247Z,11.80
2017-10-26T05:11:05.204Z,11.80
2017-10-26T05:16:08.613Z,11.80
2017-10-26T05:21:12.242Z,11.80
2017-10-26T05:26:14.934Z,11.80
2017-10-26T05:31:18.769Z,11.70
2017-10-26T05:36:22.166Z,11.80
2017-10-26T05:41:25.825Z,11.70
2017-10-26T05:46:28.518Z,11.70
2017-10-26T05:51:31.470Z,11.70
2017-10-26T05:56:34.143Z,11.70
2017-10-26T06:01:37.290Z,11.70
2017-10-26T06:06:39.941Z,11.70
2017-10-26T06:11:42.998Z,11.70
2017-10-26T06:16:45.620Z,11.70
2017-10-26T06:21:49.869Z,11.70
2017-10-26T06:26:53.269Z,11.60
2017-10-26T06:31:57.841Z,11.70
2017-10-26T06:37:01.037Z,11.70
2017-10-26T06:42:05.211Z,11.70
2017-10-26T06:47:09.755Z,11.70
2017-10-26T06:52:13.337Z,11.70
2017-10-26T06:57:16.762Z,11.80
2017-10-26T07:02:20.276Z,11.80
2017-10-26T07:07:22.912Z,11.90
2017-10-26T07:12:26.557Z,11.90
2017-10-26T07:17:29.967Z,12.10
2017-10-26T07:22:33.126Z,12.10
2017-10-26T07:27:36.546Z,12.40
2017-10-26T07:32:39.517Z,12.40
2017-10-26T07:37:42.248Z,12.60
2017-10-26T07:42:46.184Z,13.00
2017-10-26T07:47:49.601Z,13.00
2017-10-26T07:52:54.017Z,13.20
2017-10-26T07:57:56.630Z,13.30
2017-10-26T08:03:00.080Z,13.60
2017-10-26T08:08:02.731Z,13.60
2017-10-26T08:13:05.776Z,13.80
2017-10-26T08:18:08.398Z,13.90
2017-10-26T08:23:11.835Z,13.90
2017-10-26T08:28:14.459Z,14.30
2017-10-26T08:33:18.535Z,14.40
2017-10-26T08:38:21.119Z,14.40
2017-10-26T08:43:24.092Z,14.70
2017-10-26T08:48:26.716Z,15.00
2017-10-26T08:53:30.329Z,15.40
2017-10-26T08:58:33.730Z,15.60
2017-10-26T09:03:36.631Z,15.60
2017-10-26T09:08:39.271Z,15.70
2017-10-26T09:13:42.487Z,15.90
2017-10-26T09:18:45.136Z,16.10
2017-10-26T09:23:48.402Z,15.90
2017-10-26T09:28:51.042Z,15.70
2017-10-26T09:33:53.990Z,15.50
2017-10-26T09:38:56.637Z,15.90
2017-10-26T09:43:59.543Z,16.60
2017-10-26T09:49:02.149Z,16.90
2017-10-26T09:54:05.207Z,17.20
2017-10-26T09:59:07.830Z,19.90
2017-10-26T10:04:11.284Z,19.60
2017-10-26T10:09:16.436Z,18.40
2017-10-26T10:14:19.323Z,17.70
2017-10-26T10:19:21.951Z,18.50
2017-10-26T10:24:25.371Z,19.20
2017-10-26T10:29:27.947Z,19.90
2017-10-26T10:34:31.543Z,19.60
2017-10-26T10:39:34.176Z,20.00
2017-10-26T10:44:37.238Z,18.60
2017-10-26T10:49:39.876Z,18.30
2017-10-26T10:54:42.844Z,18.00
2017-10-26T10:59:50.999Z,18.80
2017-10-26T11:04:54.363Z,19.10
2017-10-26T11:09:57.730Z,19.90
2017-10-26T11:15:01.011Z,19.90
2017-10-26T11:20:03.655Z,21.00
2017-10-26T11:25:06.528Z,20.20
2017-10-26T11:30:09.163Z,19.00
2017-10-26T11:35:12.034Z,18.40
2017-10-26T11:40:14.659Z,18.50
2017-10-26T11:45:17.948Z,18.50
2017-10-26T11:50:20.575Z,17.70
2017-10-26T11:55:23.981Z,18.10
2017-10-26T12:00:26.863Z,19.30
2017-10-26T12:05:30.428Z,20.20
2017-10-26T12:10:33.059Z,19.40
2017-10-26T12:15:36.048Z,18.30
2017-10-26T12:20:39.426Z,17.50
2017-10-26T12:25:42.672Z,17.40
2017-10-26T12:30:45.284Z,18.00
2017-10-26T12:35:49.489Z,17.70
2017-10-26T12:40:52.132Z,17.60
2017-10-26T12:45:55.227Z,17.20
2017-10-26T12:50:58.611Z,17.80
2017-10-26T12:56:01.889Z,17.80
2017-10-26T13:01:04.575Z,17.90
2017-10-26T13:06:07.885Z,17.90
2017-10-26T13:11:10.537Z,17.90
2017-10-26T13:16:14.540Z,17.30
2017-10-26T13:21:17.138Z,17.20
2017-10-26T13:26:20.195Z,17.10
2017-10-26T13:31:23.565Z,16.80
2017-10-26T13:36:26.867Z,16.80
2017-10-26T13:41:29.500Z,16.60
2017-10-26T13:46:32.447Z,16.80
2017-10-26T13:51:35.849Z,16.70
2017-10-26T13:56:40.101Z,16.60
2017-10-26T14:01:42.738Z,16.60
2017-10-26T14:06:45.793Z,16.30
2017-10-26T14:11:48.411Z,16.10
2017-10-26T14:16:51.361Z,15.90
2017-10-26T14:21:54.021Z,15.80
2017-10-26T14:26:57.191Z,15.80
2017-10-26T14:31:59.782Z,15.70
2017-10-26T14:37:03.188Z,15.80
2017-10-26T14:42:05.798Z,15.70
2017-10-26T14:47:09.608Z,15.70
2017-10-26T14:52:12.188Z,15.70
2017-10-26T14:57:15.307Z,15.70
2017-10-26T15:02:18.381Z,15.70
2017-10-26T15:07:21.238Z,15.60
2017-10-26T15:12:23.886Z,15.50
2017-10-26T15:17:27.963Z,15.30
2017-10-26T15:22:30.686Z,15.30
2017-10-26T15:27:33.745Z,15.20
2017-10-26T15:32:36.405Z,15.10
2017-10-26T15:37:40.915Z,15.00
2017-10-26T15:42:43.752Z,14.90
2017-10-26T15:47:46.788Z,14.90
2017-10-26T15:52:49.492Z,14.80
2017-10-26T15:57:52.723Z,14.70
2017-10-26T16:02:55.511Z,14.70
2017-10-26T16:07:58.252Z,14.60
2017-10-26T16:13:01.271Z,14.70
2017-10-26T16:18:04.290Z,14.60
2017-10-26T16:23:07.114Z,14.60
2017-10-26T16:28:11.155Z,14.60
2017-10-26T16:33:13.795Z,14.60
2017-10-26T16:38:18.206Z,14.50
2017-10-26T16:43:20.884Z,14.50
2017-10-26T16:48:24.850Z,14.40
2017-10-26T16:53:28.396Z,14.40
2017-10-26T16:58:32.380Z,14.40
2017-10-26T17:03:35.070Z,14.30
2017-10-26T17:08:38.687Z,14.30
2017-10-26T17:13:41.703Z,14.20
2017-10-26T17:18:45.204Z,14.20
2017-10-26T17:23:48.688Z,14.10
2017-10-26T17:28:53.623Z,14.10
2017-10-26T17:33:56.320Z,14.10
2017-10-26T17:39:02.113Z,14.00
2017-10-26T17:44:05.064Z,14.00
2017-10-26T17:49:09.227Z,14.00
2017-10-26T17:54:11.872Z,14.00
2017-10-26T17:59:15.984Z,14.00
2017-10-26T18:04:18.764Z,14.00
2017-10-26T18:09:21.646Z,14.10
2017-10-26T18:14:24.381Z,14.10
2017-10-26T18:19:33.765Z,14.10
2017-10-26T18:24:39.771Z,14.00
2017-10-26T18:29:43.654Z,14.00
2017-10-26T18:34:46.327Z,14.00
2017-10-26T18:39:49.232Z,14.10
2017-10-26T18:44:51.962Z,14.10
2017-10-26T18:49:54.836Z,14.10
2017-10-26T18:54:57.649Z,14.10
2017-10-26T19:00:01.150Z,14.10
2017-10-26T19:05:03.791Z,14.10
2017-10-26T19:10:06.823Z,14.20
2017-10-26T19:15:09.864Z,14.20
2017-10-26T19:20:14.199Z,14.20
2017-10-26T19:25:17.524Z,14.10
2017-10-26T19:30:22.618Z,14.10
2017-10-26T19:35:25.344Z,14.10
2017-10-26T19:40:28.241Z,14.10
2017-10-26T19:45:30.853Z,14.00
2017-10-26T19:50:34.427Z,14.00
2017-10-26T19:55:37.098Z,14.00
2017-10-26T20:00:40.694Z,14.10
2017-10-26T20:05:43.372Z,14.10
2017-10-26T20:10:46.363Z,14.10
2017-10-26T20:15:48.991Z,14.00
2017-10-26T20:20:52.434Z,14.00
2017-10-26T20:25:55.816Z,14.00
2017-10-26T20:30:59.187Z,14.00
2017-10-26T20:36:01.971Z,14.00
2017-10-26T20:41:06.456Z,13.90
2017-10-26T20:46:09.158Z,13.90
2017-10-26T20:51:17.886Z,13.90
2017-10-26T20:56:26.137Z,13.90
2017-10-26T21:01:34.721Z,13.90
2017-10-26T21:06:37.754Z,13.90
2017-10-26T21:11:46.694Z,13.90
2017-10-26T21:16:49.586Z,13.90
2017-10-26T21:21:53.169Z,13.90
2017-10-26T21:26:55.804Z,13.90
2017-10-26T21:32:02.265Z,13.80
2017-10-26T21:37:05.922Z,13.70
2017-10-26T21:42:08.703Z,13.60
2017-10-26T21:47:12.140Z,13.50
2017-10-26T21:52:15.783Z,13.50
2017-10-26T21:57:18.406Z,13.40
2017-10-26T22:02:21.895Z,13.30
2017-10-26T22:07:24.502Z,13.30
2017-10-26T22:12:27.488Z,13.30
2017-10-26T22:17:30.159Z,13.20
2017-10-26T22:22:34.209Z,13.20
2017-10-26T22:27:37.599Z,13.30
2017-10-26T22:32:40.800Z,13.30
2017-10-26T22:37:43.428Z,13.30
2017-10-26T22:42:47.487Z,13.40
2017-10-26T22:47:50.268Z,13.40
2017-10-26T22:52:54.043Z,13.40
2017-10-26T22:57:56.868Z,13.40
2017-10-26T23:02:59.640Z,13.40
2017-10-26T23:08:02.304Z,13.40
2017-10-26T23:13:05.718Z,13.30
2017-10-26T23:18:08.357Z,13.30
2017-10-26T23:23:11.782Z,13.30
2017-10-26T23:28:14.441Z,13.20
2017-10-26T23:33:17.796Z,13.10
2017-10-26T23:38:20.552Z,13.00
2017-10-26T23:43:23.172Z,12.90
2017-10-26T23:48:25.835Z,12.90
2017-10-26T23:53:29.809Z,12.80
2017-10-26T23:58:32.506Z,12.70
